Whatley, Alabama
Current Conditions -  °F | °C
As of 2:53 PM on Thursday 20 Nov 2014 (Local Time) from KGZH Reporting Station
Clear Clear  
Wind Chill: 67°   Ceiling: Unl
Heat Index: 67°   Visibility: 10mi
Dew Point: 41°   Wind: 3mph
Humidity: 39%   Direction: NA
Pressure: 30.21"   Gusts: NA
Location:  31.65°N, 87.7°W
Report Text: KGZH 202053Z AUTO VRB03KT 10SM CLR 19/05 A3021 RMK AO2 SLP228 T01940050 56017
Loading
Personal Weather Stations






























Interactive Weather Map New forecast layout! Learn more

10-Day Weather Forecast

Advertisements
Track Severe Weather on mobile